sensor_id;sensor_type;location;lat;lon;timestamp;P1;durP1;ratioP1;P2;durP2;ratioP2
8982;SDS011;20979;59.850;10.660;2022-09-03T00:00:34;0.83;;;0.83;;
8982;SDS011;20979;59.850;10.660;2022-09-03T00:03:03;0.90;;;0.67;;
8982;SDS011;20979;59.850;10.660;2022-09-03T00:05:31;0.90;;;0.90;;
8982;SDS011;20979;59.850;10.660;2022-09-03T00:08:02;1.60;;;1.00;;
8982;SDS011;20979;59.850;10.660;2022-09-03T00:10:33;1.00;;;1.00;;
8982;SDS011;20979;59.850;10.660;2022-09-03T00:13:03;1.70;;;1.00;;
8982;SDS011;20979;59.850;10.660;2022-09-03T00:15:31;1.70;;;0.93;;
8982;SDS011;20979;59.850;10.660;2022-09-03T00:18:01;1.60;;;1.13;;
8982;SDS011;20979;59.850;10.660;2022-09-03T00:20:30;1.33;;;1.03;;
8982;SDS011;20979;59.850;10.660;2022-09-03T00:23:02;0.97;;;0.90;;
8982;SDS011;20979;59.850;10.660;2022-09-03T00:25:34;1.50;;;0.90;;
8982;SDS011;20979;59.850;10.660;2022-09-03T00:28:05;1.50;;;1.20;;
8982;SDS011;20979;59.850;10.660;2022-09-03T00:30:34;0.83;;;0.77;;
8982;SDS011;20979;59.850;10.660;2022-09-03T00:33:02;2.17;;;0.90;;
8982;SDS011;20979;59.850;10.660;2022-09-03T00:35:32;1.77;;;1.07;;
8982;SDS011;20979;59.850;10.660;2022-09-03T00:38:00;0.97;;;0.90;;
8982;SDS011;20979;59.850;10.660;2022-09-03T00:40:31;1.10;;;1.10;;
8982;SDS011;20979;59.850;10.660;2022-09-03T00:43:04;1.23;;;0.90;;
8982;SDS011;20979;59.850;10.660;2022-09-03T00:45:36;1.13;;;1.00;;
8982;SDS011;20979;59.850;10.660;2022-09-03T00:48:08;0.90;;;0.90;;
8982;SDS011;20979;59.850;10.660;2022-09-03T00:50:42;0.80;;;0.80;;
8982;SDS011;20979;59.850;10.660;2022-09-03T00:53:13;0.80;;;0.80;;
8982;SDS011;20979;59.850;10.660;2022-09-03T00:55:42;2.50;;;0.80;;
8982;SDS011;20979;59.850;10.660;2022-09-03T01:01:24;1.30;;;0.93;;
8982;SDS011;20979;59.850;10.660;2022-09-03T01:03:55;1.30;;;1.00;;
8982;SDS011;20979;59.850;10.660;2022-09-03T01:06:27;1.07;;;0.90;;
8982;SDS011;20979;59.850;10.660;2022-09-03T01:09:02;0.80;;;0.80;;
8982;SDS011;20979;59.850;10.660;2022-09-03T01:11:36;0.70;;;0.70;;
8982;SDS011;20979;59.850;10.660;2022-09-03T01:14:14;1.00;;;1.00;;
8982;SDS011;20979;59.850;10.660;2022-09-03T01:16:45;1.80;;;0.90;;
8982;SDS011;20979;59.850;10.660;2022-09-03T01:19:22;2.83;;;1.00;;
8982;SDS011;20979;59.850;10.660;2022-09-03T01:22:03;1.03;;;0.93;;
8982;SDS011;20979;59.850;10.660;2022-09-03T01:24:40;0.80;;;0.80;;
8982;SDS011;20979;59.850;10.660;2022-09-03T01:27:16;0.93;;;0.93;;
8982;SDS011;20979;59.850;10.660;2022-09-03T01:29:48;1.70;;;0.97;;
8982;SDS011;20979;59.850;10.660;2022-09-03T01:32:21;0.90;;;0.90;;
8982;SDS011;20979;59.850;10.660;2022-09-03T01:34:55;0.80;;;0.80;;
8982;SDS011;20979;59.850;10.660;2022-09-03T01:37:26;1.00;;;1.00;;
8982;SDS011;20979;59.850;10.660;2022-09-03T01:39:59;1.33;;;1.00;;
8982;SDS011;20979;59.850;10.660;2022-09-03T01:42:32;0.97;;;0.97;;
8982;SDS011;20979;59.850;10.660;2022-09-03T01:47:51;1.03;;;0.97;;
8982;SDS011;20979;59.850;10.660;2022-09-03T01:50:25;1.50;;;0.80;;
8982;SDS011;20979;59.850;10.660;2022-09-03T01:53:01;1.60;;;0.80;;
8982;SDS011;20979;59.850;10.660;2022-09-03T01:55:30;0.87;;;0.87;;
8982;SDS011;20979;59.850;10.660;2022-09-03T01:57:59;1.10;;;1.00;;
8982;SDS011;20979;59.850;10.660;2022-09-03T02:00:29;0.97;;;0.97;;
8982;SDS011;20979;59.850;10.660;2022-09-03T02:03:01;1.50;;;0.87;;
8982;SDS011;20979;59.850;10.660;2022-09-03T02:05:31;0.80;;;0.80;;
8982;SDS011;20979;59.850;10.660;2022-09-03T02:08:00;2.30;;;0.80;;
8982;SDS011;20979;59.850;10.660;2022-09-03T02:10:29;1.67;;;0.90;;
8982;SDS011;20979;59.850;10.660;2022-09-03T02:12:58;1.17;;;1.03;;
8982;SDS011;20979;59.850;10.660;2022-09-03T02:15:27;0.90;;;0.90;;
8982;SDS011;20979;59.850;10.660;2022-09-03T02:17:59;1.57;;;0.90;;
8982;SDS011;20979;59.850;10.660;2022-09-03T02:20:29;1.03;;;1.00;;
8982;SDS011;20979;59.850;10.660;2022-09-03T02:22:56;0.97;;;0.83;;
8982;SDS011;20979;59.850;10.660;2022-09-03T02:25:28;2.20;;;0.80;;
8982;SDS011;20979;59.850;10.660;2022-09-03T02:27:56;0.80;;;0.80;;
8982;SDS011;20979;59.850;10.660;2022-09-03T02:30:24;0.97;;;0.97;;
8982;SDS011;20979;59.850;10.660;2022-09-03T02:32:51;1.33;;;0.70;;
8982;SDS011;20979;59.850;10.660;2022-09-03T02:35:19;1.00;;;1.00;;
8982;SDS011;20979;59.850;10.660;2022-09-03T02:37:47;3.03;;;1.10;;
8982;SDS011;20979;59.850;10.660;2022-09-03T02:40:15;1.10;;;1.00;;
8982;SDS011;20979;59.850;10.660;2022-09-03T02:42:43;2.10;;;1.10;;
8982;SDS011;20979;59.850;10.660;2022-09-03T02:45:20;0.90;;;0.90;;
8982;SDS011;20979;59.850;10.660;2022-09-03T02:47:51;1.57;;;1.00;;
8982;SDS011;20979;59.850;10.660;2022-09-03T02:50:19;1.07;;;0.93;;
8982;SDS011;20979;59.850;10.660;2022-09-03T02:52:48;1.57;;;0.80;;
8982;SDS011;20979;59.850;10.660;2022-09-03T02:55:15;1.33;;;0.90;;
8982;SDS011;20979;59.850;10.660;2022-09-03T02:57:43;0.90;;;0.90;;
8982;SDS011;20979;59.850;10.660;2022-09-03T03:00:10;1.00;;;0.80;;
8982;SDS011;20979;59.850;10.660;2022-09-03T03:02:37;1.83;;;1.20;;
8982;SDS011;20979;59.850;10.660;2022-09-03T03:05:06;1.23;;;0.80;;
8982;SDS011;20979;59.850;10.660;2022-09-03T03:07:35;1.13;;;1.00;;
8982;SDS011;20979;59.850;10.660;2022-09-03T03:10:06;0.53;;;0.53;;
8982;SDS011;20979;59.850;10.660;2022-09-03T03:12:33;2.20;;;1.13;;
8982;SDS011;20979;59.850;10.660;2022-09-03T03:15:01;1.33;;;1.10;;
8982;SDS011;20979;59.850;10.660;2022-09-03T03:17:28;0.90;;;0.90;;
8982;SDS011;20979;59.850;10.660;2022-09-03T03:19:55;1.30;;;1.20;;
8982;SDS011;20979;59.850;10.660;2022-09-03T03:22:23;0.87;;;0.87;;
8982;SDS011;20979;59.850;10.660;2022-09-03T03:24:50;1.43;;;0.90;;
8982;SDS011;20979;59.850;10.660;2022-09-03T03:27:20;1.33;;;1.00;;
8982;SDS011;20979;59.850;10.660;2022-09-03T03:29:48;1.13;;;1.00;;
8982;SDS011;20979;59.850;10.660;2022-09-03T03:32:16;1.13;;;1.03;;
8982;SDS011;20979;59.850;10.660;2022-09-03T03:34:43;1.10;;;1.10;;
8982;SDS011;20979;59.850;10.660;2022-09-03T03:37:10;1.20;;;1.10;;
8982;SDS011;20979;59.850;10.660;2022-09-03T03:39:38;1.00;;;0.90;;
8982;SDS011;20979;59.850;10.660;2022-09-03T03:42:05;1.07;;;1.07;;
8982;SDS011;20979;59.850;10.660;2022-09-03T03:44:34;2.10;;;0.97;;
8982;SDS011;20979;59.850;10.660;2022-09-03T03:47:02;1.73;;;1.40;;
8982;SDS011;20979;59.850;10.660;2022-09-03T03:49:30;1.07;;;0.90;;
8982;SDS011;20979;59.850;10.660;2022-09-03T03:51:57;1.43;;;1.00;;
8982;SDS011;20979;59.850;10.660;2022-09-03T03:54:24;2.10;;;0.90;;
8982;SDS011;20979;59.850;10.660;2022-09-03T03:56:52;0.90;;;0.90;;
8982;SDS011;20979;59.850;10.660;2022-09-03T03:59:19;0.80;;;0.80;;
8982;SDS011;20979;59.850;10.660;2022-09-03T04:01:47;0.90;;;0.90;;
8982;SDS011;20979;59.850;10.660;2022-09-03T04:04:15;0.80;;;0.80;;
8982;SDS011;20979;59.850;10.660;2022-09-03T04:06:42;0.90;;;0.90;;
8982;SDS011;20979;59.850;10.660;2022-09-03T04:09:10;1.30;;;0.90;;
8982;SDS011;20979;59.850;10.660;2022-09-03T04:11:37;0.80;;;0.80;;
8982;SDS011;20979;59.850;10.660;2022-09-03T04:14:04;1.00;;;1.00;;
8982;SDS011;20979;59.850;10.660;2022-09-03T04:16:31;2.00;;;1.00;;
8982;SDS011;20979;59.850;10.660;2022-09-03T04:19:01;1.23;;;1.10;;
8982;SDS011;20979;59.850;10.660;2022-09-03T04:21:29;0.97;;;0.97;;
8982;SDS011;20979;59.850;10.660;2022-09-03T04:23:56;1.43;;;1.10;;
8982;SDS011;20979;59.850;10.660;2022-09-03T04:26:25;0.80;;;0.80;;
8982;SDS011;20979;59.850;10.660;2022-09-03T04:28:55;1.27;;;1.00;;
8982;SDS011;20979;59.850;10.660;2022-09-03T04:31:23;1.20;;;1.10;;
8982;SDS011;20979;59.850;10.660;2022-09-03T04:33:50;0.90;;;0.90;;
8982;SDS011;20979;59.850;10.660;2022-09-03T04:36:20;0.80;;;0.80;;
8982;SDS011;20979;59.850;10.660;2022-09-03T04:38:48;2.27;;;1.00;;
8982;SDS011;20979;59.850;10.660;2022-09-03T04:41:17;0.80;;;0.80;;
8982;SDS011;20979;59.850;10.660;2022-09-03T04:43:45;0.80;;;0.80;;
8982;SDS011;20979;59.850;10.660;2022-09-03T04:46:13;1.30;;;1.00;;
8982;SDS011;20979;59.850;10.660;2022-09-03T04:48:41;0.70;;;0.70;;
8982;SDS011;20979;59.850;10.660;2022-09-03T04:51:09;1.03;;;0.97;;
8982;SDS011;20979;59.850;10.660;2022-09-03T04:53:39;0.90;;;0.90;;
8982;SDS011;20979;59.850;10.660;2022-09-03T04:56:11;2.43;;;0.90;;
8982;SDS011;20979;59.850;10.660;2022-09-03T04:58:38;0.97;;;0.90;;
8982;SDS011;20979;59.850;10.660;2022-09-03T05:01:09;1.10;;;0.87;;
8982;SDS011;20979;59.850;10.660;2022-09-03T05:03:36;1.07;;;0.60;;
8982;SDS011;20979;59.850;10.660;2022-09-03T05:06:03;2.37;;;0.90;;
8982;SDS011;20979;59.850;10.660;2022-09-03T05:08:32;0.70;;;0.70;;
8982;SDS011;20979;59.850;10.660;2022-09-03T05:11:02;1.33;;;0.83;;
8982;SDS011;20979;59.850;10.660;2022-09-03T05:13:30;1.83;;;0.97;;
8982;SDS011;20979;59.850;10.660;2022-09-03T05:15:58;1.77;;;0.90;;
8982;SDS011;20979;59.850;10.660;2022-09-03T05:18:26;1.83;;;0.90;;
8982;SDS011;20979;59.850;10.660;2022-09-03T05:20:57;1.07;;;0.83;;
8982;SDS011;20979;59.850;10.660;2022-09-03T05:23:25;0.77;;;0.77;;
8982;SDS011;20979;59.850;10.660;2022-09-03T05:25:55;0.83;;;0.83;;
8982;SDS011;20979;59.850;10.660;2022-09-03T05:28:25;1.50;;;1.07;;
8982;SDS011;20979;59.850;10.660;2022-09-03T05:30:59;1.77;;;0.80;;
8982;SDS011;20979;59.850;10.660;2022-09-03T05:33:26;0.87;;;0.87;;
8982;SDS011;20979;59.850;10.660;2022-09-03T05:35:54;2.80;;;1.00;;
8982;SDS011;20979;59.850;10.660;2022-09-03T05:38:26;1.30;;;0.93;;
8982;SDS011;20979;59.850;10.660;2022-09-03T05:40:54;0.70;;;0.70;;
8982;SDS011;20979;59.850;10.660;2022-09-03T05:43:25;0.93;;;0.90;;
8982;SDS011;20979;59.850;10.660;2022-09-03T05:45:55;0.90;;;0.90;;
8982;SDS011;20979;59.850;10.660;2022-09-03T05:48:24;1.07;;;0.70;;
8982;SDS011;20979;59.850;10.660;2022-09-03T05:50:57;1.00;;;0.90;;
8982;SDS011;20979;59.850;10.660;2022-09-03T05:53:25;2.07;;;1.07;;
8982;SDS011;20979;59.850;10.660;2022-09-03T05:55:56;2.17;;;1.10;;
8982;SDS011;20979;59.850;10.660;2022-09-03T05:58:25;1.17;;;1.00;;
8982;SDS011;20979;59.850;10.660;2022-09-03T06:00:56;1.00;;;0.90;;
8982;SDS011;20979;59.850;10.660;2022-09-03T06:03:23;1.50;;;0.73;;
8982;SDS011;20979;59.850;10.660;2022-09-03T06:05:51;1.23;;;0.93;;
8982;SDS011;20979;59.850;10.660;2022-09-03T06:08:18;1.90;;;0.83;;
8982;SDS011;20979;59.850;10.660;2022-09-03T06:10:46;1.47;;;0.83;;
8982;SDS011;20979;59.850;10.660;2022-09-03T06:13:13;1.03;;;0.90;;
8982;SDS011;20979;59.850;10.660;2022-09-03T06:15:42;0.80;;;0.80;;
8982;SDS011;20979;59.850;10.660;2022-09-03T06:18:09;1.33;;;1.00;;
8982;SDS011;20979;59.850;10.660;2022-09-03T06:20:36;0.80;;;0.80;;
8982;SDS011;20979;59.850;10.660;2022-09-03T06:23:03;0.80;;;0.80;;
8982;SDS011;20979;59.850;10.660;2022-09-03T06:25:30;1.40;;;0.83;;
8982;SDS011;20979;59.850;10.660;2022-09-03T06:27:58;1.03;;;0.57;;
8982;SDS011;20979;59.850;10.660;2022-09-03T06:30:26;0.80;;;0.80;;
8982;SDS011;20979;59.850;10.660;2022-09-03T06:32:55;1.23;;;0.93;;
8982;SDS011;20979;59.850;10.660;2022-09-03T06:35:23;1.47;;;1.17;;
8982;SDS011;20979;59.850;10.660;2022-09-03T06:37:51;1.30;;;1.20;;
8982;SDS011;20979;59.850;10.660;2022-09-03T06:40:18;1.47;;;1.23;;
8982;SDS011;20979;59.850;10.660;2022-09-03T06:42:54;1.00;;;1.00;;
8982;SDS011;20979;59.850;10.660;2022-09-03T06:45:23;1.33;;;1.20;;
8982;SDS011;20979;59.850;10.660;2022-09-03T06:47:50;1.27;;;0.97;;
8982;SDS011;20979;59.850;10.660;2022-09-03T06:50:21;1.40;;;0.83;;
8982;SDS011;20979;59.850;10.660;2022-09-03T06:53:02;0.90;;;0.90;;
8982;SDS011;20979;59.850;10.660;2022-09-03T06:55:30;1.00;;;1.00;;
8982;SDS011;20979;59.850;10.660;2022-09-03T06:57:57;0.90;;;0.90;;
8982;SDS011;20979;59.850;10.660;2022-09-03T07:00:37;2.70;;;1.00;;
8982;SDS011;20979;59.850;10.660;2022-09-03T07:03:18;1.33;;;0.93;;
8982;SDS011;20979;59.850;10.660;2022-09-03T07:05:47;0.73;;;0.73;;
8982;SDS011;20979;59.850;10.660;2022-09-03T07:08:27;0.90;;;0.90;;
8982;SDS011;20979;59.850;10.660;2022-09-03T07:11:12;0.97;;;0.70;;
8982;SDS011;20979;59.850;10.660;2022-09-03T07:13:50;1.57;;;0.73;;
8982;SDS011;20979;59.850;10.660;2022-09-03T07:16:40;0.97;;;0.87;;
8982;SDS011;20979;59.850;10.660;2022-09-03T07:19:08;1.00;;;0.90;;
8982;SDS011;20979;59.850;10.660;2022-09-03T07:27:57;0.70;;;0.63;;
8982;SDS011;20979;59.850;10.660;2022-09-03T07:30:25;1.10;;;1.00;;
8982;SDS011;20979;59.850;10.660;2022-09-03T07:39:03;1.17;;;1.00;;
8982;SDS011;20979;59.850;10.660;2022-09-03T07:59:51;1.00;;;0.93;;
8982;SDS011;20979;59.850;10.660;2022-09-03T08:05:25;1.70;;;0.87;;
8982;SDS011;20979;59.850;10.660;2022-09-03T08:38:21;1.50;;;1.40;;
8982;SDS011;20979;59.850;10.660;2022-09-03T08:41:14;1.57;;;1.47;;
8982;SDS011;20979;59.850;10.660;2022-09-03T08:44:00;2.43;;;1.57;;
8982;SDS011;20979;59.850;10.660;2022-09-03T08:46:35;3.90;;;1.70;;
8982;SDS011;20979;59.850;10.660;2022-09-03T08:49:10;2.27;;;1.87;;
8982;SDS011;20979;59.850;10.660;2022-09-03T08:51:39;2.23;;;1.60;;
8982;SDS011;20979;59.850;10.660;2022-09-03T08:54:10;2.73;;;1.40;;
8982;SDS011;20979;59.850;10.660;2022-09-03T08:59:55;2.37;;;1.23;;
8982;SDS011;20979;59.850;10.660;2022-09-03T09:08:53;2.23;;;1.10;;
8982;SDS011;20979;59.850;10.660;2022-09-03T10:31:28;1.60;;;1.13;;
8982;SDS011;20979;59.850;10.660;2022-09-03T10:37:33;1.00;;;1.00;;
8982;SDS011;20979;59.850;10.660;2022-09-03T10:40:37;1.00;;;1.00;;
8982;SDS011;20979;59.850;10.660;2022-09-03T10:55:55;1.47;;;0.90;;
8982;SDS011;20979;59.850;10.660;2022-09-03T11:01:45;2.00;;;1.40;;
8982;SDS011;20979;59.850;10.660;2022-09-03T11:40:59;1.00;;;1.00;;
8982;SDS011;20979;59.850;10.660;2022-09-03T11:43:28;0.80;;;0.80;;
8982;SDS011;20979;59.850;10.660;2022-09-03T11:46:05;1.50;;;1.17;;
8982;SDS011;20979;59.850;10.660;2022-09-03T11:51:54;1.10;;;1.00;;
8982;SDS011;20979;59.850;10.660;2022-09-03T11:54:52;1.00;;;1.00;;
8982;SDS011;20979;59.850;10.660;2022-09-03T12:49:56;0.73;;;0.73;;
8982;SDS011;20979;59.850;10.660;2022-09-03T12:53:04;0.80;;;0.80;;
8982;SDS011;20979;59.850;10.660;2022-09-03T12:55:47;0.70;;;0.70;;
8982;SDS011;20979;59.850;10.660;2022-09-03T12:58:33;0.97;;;0.87;;
8982;SDS011;20979;59.850;10.660;2022-09-03T13:06:54;0.70;;;0.70;;
8982;SDS011;20979;59.850;10.660;2022-09-03T13:09:25;0.77;;;0.77;;
8982;SDS011;20979;59.850;10.660;2022-09-03T13:14:46;0.88;;;0.88;;
8982;SDS011;20979;59.850;10.660;2022-09-03T13:17:17;0.70;;;0.70;;
8982;SDS011;20979;59.850;10.660;2022-09-03T13:26:17;0.77;;;0.77;;
8982;SDS011;20979;59.850;10.660;2022-09-03T13:28:50;0.80;;;0.80;;
8982;SDS011;20979;59.850;10.660;2022-09-03T13:31:25;1.33;;;0.50;;
8982;SDS011;20979;59.850;10.660;2022-09-03T13:39:42;0.97;;;0.90;;
8982;SDS011;20979;59.850;10.660;2022-09-03T13:42:19;1.10;;;1.00;;
8982;SDS011;20979;59.850;10.660;2022-09-03T13:54:43;1.30;;;1.20;;
8982;SDS011;20979;59.850;10.660;2022-09-03T14:09:38;0.90;;;0.90;;
8982;SDS011;20979;59.850;10.660;2022-09-03T14:12:13;0.80;;;0.80;;
8982;SDS011;20979;59.850;10.660;2022-09-03T14:14:59;0.93;;;0.90;;
8982;SDS011;20979;59.850;10.660;2022-09-03T14:33:12;0.90;;;0.90;;
8982;SDS011;20979;59.850;10.660;2022-09-03T15:47:27;1.10;;;0.97;;
8982;SDS011;20979;59.850;10.660;2022-09-03T15:49:59;1.17;;;1.07;;
8982;SDS011;20979;59.850;10.660;2022-09-03T15:52:29;2.77;;;1.50;;
8982;SDS011;20979;59.850;10.660;2022-09-03T15:55:11;1.37;;;1.27;;
8982;SDS011;20979;59.850;10.660;2022-09-03T15:57:43;1.40;;;1.30;;
8982;SDS011;20979;59.850;10.660;2022-09-03T16:00:27;1.40;;;1.30;;
8982;SDS011;20979;59.850;10.660;2022-09-03T16:05:45;1.40;;;1.20;;
8982;SDS011;20979;59.850;10.660;2022-09-03T16:08:17;1.30;;;1.20;;
8982;SDS011;20979;59.850;10.660;2022-09-03T16:10:51;1.20;;;1.10;;
8982;SDS011;20979;59.850;10.660;2022-09-03T16:25:17;0.80;;;0.80;;
8982;SDS011;20979;59.850;10.660;2022-09-03T16:28:07;1.10;;;1.10;;
8982;SDS011;20979;59.850;10.660;2022-09-03T16:30:59;1.00;;;1.00;;
8982;SDS011;20979;59.850;10.660;2022-09-03T16:36:36;1.00;;;1.00;;
8982;SDS011;20979;59.850;10.660;2022-09-03T16:39:15;1.00;;;1.00;;
8982;SDS011;20979;59.850;10.660;2022-09-03T16:41:49;1.40;;;1.20;;
8982;SDS011;20979;59.850;10.660;2022-09-03T16:47:43;1.27;;;1.17;;
8982;SDS011;20979;59.850;10.660;2022-09-03T16:50:37;1.20;;;1.20;;
8982;SDS011;20979;59.850;10.660;2022-09-03T16:53:24;1.00;;;1.00;;
8982;SDS011;20979;59.850;10.660;2022-09-03T16:55:56;1.00;;;1.00;;
8982;SDS011;20979;59.850;10.660;2022-09-03T17:05:11;1.13;;;1.10;;
8982;SDS011;20979;59.850;10.660;2022-09-03T17:07:55;1.00;;;1.00;;
8982;SDS011;20979;59.850;10.660;2022-09-03T17:10:47;1.00;;;1.00;;
8982;SDS011;20979;59.850;10.660;2022-09-03T17:16:30;1.20;;;1.20;;
8982;SDS011;20979;59.850;10.660;2022-09-03T17:19:15;1.00;;;1.00;;
8982;SDS011;20979;59.850;10.660;2022-09-03T17:22:05;1.20;;;1.10;;
8982;SDS011;20979;59.850;10.660;2022-09-03T17:27:53;1.33;;;1.23;;
8982;SDS011;20979;59.850;10.660;2022-09-03T17:31:26;1.50;;;1.40;;
8982;SDS011;20979;59.850;10.660;2022-09-03T17:33:39;1.27;;;1.20;;
8982;SDS011;20979;59.850;10.660;2022-09-03T17:42:50;1.20;;;1.20;;
8982;SDS011;20979;59.850;10.660;2022-09-03T17:45:23;1.10;;;1.10;;
8982;SDS011;20979;59.850;10.660;2022-09-03T17:48:33;1.37;;;1.17;;
8982;SDS011;20979;59.850;10.660;2022-09-03T17:51:41;1.23;;;1.10;;
8982;SDS011;20979;59.850;10.660;2022-09-03T17:54:42;2.00;;;1.50;;
8982;SDS011;20979;59.850;10.660;2022-09-03T17:57:42;1.30;;;1.20;;
8982;SDS011;20979;59.850;10.660;2022-09-03T18:00:27;1.40;;;1.30;;
8982;SDS011;20979;59.850;10.660;2022-09-03T18:03:18;2.47;;;1.27;;
8982;SDS011;20979;59.850;10.660;2022-09-03T18:09:06;1.27;;;1.17;;
8982;SDS011;20979;59.850;10.660;2022-09-03T18:14:55;1.70;;;1.10;;
8982;SDS011;20979;59.850;10.660;2022-09-03T18:17:43;1.50;;;1.40;;
8982;SDS011;20979;59.850;10.660;2022-09-03T18:20:40;1.23;;;1.23;;
8982;SDS011;20979;59.850;10.660;2022-09-03T18:35:52;2.43;;;2.20;;
8982;SDS011;20979;59.850;10.660;2022-09-03T18:38:42;2.67;;;2.00;;
8982;SDS011;20979;59.850;10.660;2022-09-03T18:47:39;1.90;;;1.80;;
8982;SDS011;20979;59.850;10.660;2022-09-03T18:50:27;2.10;;;1.93;;
8982;SDS011;20979;59.850;10.660;2022-09-03T18:53:16;2.10;;;1.90;;
8982;SDS011;20979;59.850;10.660;2022-09-03T18:59:09;2.03;;;1.93;;
8982;SDS011;20979;59.850;10.660;2022-09-03T19:01:57;1.80;;;1.70;;
8982;SDS011;20979;59.850;10.660;2022-09-03T19:13:56;2.47;;;2.00;;
8982;SDS011;20979;59.850;10.660;2022-09-03T19:16:48;1.80;;;1.70;;
8982;SDS011;20979;59.850;10.660;2022-09-03T19:19:44;3.63;;;1.80;;
8982;SDS011;20979;59.850;10.660;2022-09-03T19:22:33;2.60;;;1.77;;
8982;SDS011;20979;59.850;10.660;2022-09-03T19:25:19;2.30;;;1.80;;
8982;SDS011;20979;59.850;10.660;2022-09-03T19:28:10;2.03;;;1.83;;
8982;SDS011;20979;59.850;10.660;2022-09-03T19:31:01;2.30;;;1.63;;
8982;SDS011;20979;59.850;10.660;2022-09-03T19:33:52;2.20;;;2.00;;
8982;SDS011;20979;59.850;10.660;2022-09-03T19:36:41;2.87;;;1.80;;
8982;SDS011;20979;59.850;10.660;2022-09-03T19:39:33;2.27;;;2.10;;
8982;SDS011;20979;59.850;10.660;2022-09-03T19:42:23;1.80;;;1.70;;
8982;SDS011;20979;59.850;10.660;2022-09-03T19:45:11;2.00;;;1.90;;
8982;SDS011;20979;59.850;10.660;2022-09-03T19:48:03;1.90;;;1.70;;
8982;SDS011;20979;59.850;10.660;2022-09-03T19:50:55;1.57;;;1.47;;
8982;SDS011;20979;59.850;10.660;2022-09-03T19:53:43;1.70;;;1.60;;
8982;SDS011;20979;59.850;10.660;2022-09-03T19:56:28;2.73;;;1.93;;
8982;SDS011;20979;59.850;10.660;2022-09-03T19:59:15;1.80;;;1.70;;
8982;SDS011;20979;59.850;10.660;2022-09-03T20:02:01;1.80;;;1.70;;
8982;SDS011;20979;59.850;10.660;2022-09-03T20:04:49;2.00;;;1.90;;
8982;SDS011;20979;59.850;10.660;2022-09-03T20:07:35;2.40;;;2.17;;
8982;SDS011;20979;59.850;10.660;2022-09-03T20:10:20;2.60;;;2.40;;
8982;SDS011;20979;59.850;10.660;2022-09-03T20:12:48;3.23;;;2.93;;
8982;SDS011;20979;59.850;10.660;2022-09-03T20:15:16;3.97;;;3.60;;
8982;SDS011;20979;59.850;10.660;2022-09-03T20:17:48;4.73;;;3.80;;
8982;SDS011;20979;59.850;10.660;2022-09-03T20:20:25;4.97;;;4.47;;
8982;SDS011;20979;59.850;10.660;2022-09-03T20:22:55;6.77;;;5.40;;
8982;SDS011;20979;59.850;10.660;2022-09-03T20:25:35;7.00;;;6.30;;
8982;SDS011;20979;59.850;10.660;2022-09-03T20:28:07;9.33;;;7.23;;
8982;SDS011;20979;59.850;10.660;2022-09-03T20:30:38;6.93;;;6.23;;
8982;SDS011;20979;59.850;10.660;2022-09-03T20:33:13;6.33;;;5.73;;
8982;SDS011;20979;59.850;10.660;2022-09-03T20:35:45;4.50;;;4.10;;
8982;SDS011;20979;59.850;10.660;2022-09-03T20:38:23;3.57;;;2.90;;
8982;SDS011;20979;59.850;10.660;2022-09-03T20:40:52;2.87;;;2.67;;
8982;SDS011;20979;59.850;10.660;2022-09-03T20:43:30;2.40;;;2.20;;
8982;SDS011;20979;59.850;10.660;2022-09-03T20:46:06;2.20;;;2.00;;
8982;SDS011;20979;59.850;10.660;2022-09-03T20:48:38;2.20;;;2.10;;
8982;SDS011;20979;59.850;10.660;2022-09-03T20:51:11;2.10;;;2.00;;
8982;SDS011;20979;59.850;10.660;2022-09-03T20:53:49;2.30;;;2.20;;
8982;SDS011;20979;59.850;10.660;2022-09-03T20:56:24;2.50;;;2.30;;
8982;SDS011;20979;59.850;10.660;2022-09-03T20:58:53;2.90;;;2.70;;
8982;SDS011;20979;59.850;10.660;2022-09-03T21:01:25;2.87;;;2.67;;
8982;SDS011;20979;59.850;10.660;2022-09-03T21:03:56;3.00;;;2.80;;
8982;SDS011;20979;59.850;10.660;2022-09-03T21:06:28;3.90;;;3.60;;
8982;SDS011;20979;59.850;10.660;2022-09-03T21:09:06;4.03;;;3.27;;
8982;SDS011;20979;59.850;10.660;2022-09-03T21:11:37;4.00;;;3.67;;
8982;SDS011;20979;59.850;10.660;2022-09-03T21:14:09;5.07;;;3.20;;
8982;SDS011;20979;59.850;10.660;2022-09-03T21:16:41;2.97;;;2.50;;
8982;SDS011;20979;59.850;10.660;2022-09-03T21:19:14;4.37;;;2.20;;
8982;SDS011;20979;59.850;10.660;2022-09-03T21:21:46;1.90;;;1.70;;
8982;SDS011;20979;59.850;10.660;2022-09-03T21:24:17;1.93;;;1.77;;
8982;SDS011;20979;59.850;10.660;2022-09-03T21:26:46;1.63;;;1.53;;
8982;SDS011;20979;59.850;10.660;2022-09-03T21:29:17;1.70;;;1.60;;
8982;SDS011;20979;59.850;10.660;2022-09-03T21:31:46;1.70;;;1.60;;
8982;SDS011;20979;59.850;10.660;2022-09-03T21:34:16;2.10;;;1.90;;
8982;SDS011;20979;59.850;10.660;2022-09-03T21:36:46;3.20;;;1.90;;
8982;SDS011;20979;59.850;10.660;2022-09-03T21:39:18;2.23;;;2.03;;
8982;SDS011;20979;59.850;10.660;2022-09-03T21:41:47;1.80;;;1.70;;
8982;SDS011;20979;59.850;10.660;2022-09-03T21:44:35;3.37;;;2.10;;
8982;SDS011;20979;59.850;10.660;2022-09-03T21:47:04;2.43;;;2.23;;
8982;SDS011;20979;59.850;10.660;2022-09-03T21:49:34;2.50;;;2.30;;
8982;SDS011;20979;59.850;10.660;2022-09-03T21:52:05;1.97;;;1.87;;
8982;SDS011;20979;59.850;10.660;2022-09-03T21:54:33;2.40;;;2.20;;
8982;SDS011;20979;59.850;10.660;2022-09-03T21:57:10;2.63;;;2.43;;
8982;SDS011;20979;59.850;10.660;2022-09-03T22:00:00;3.90;;;3.53;;
8982;SDS011;20979;59.850;10.660;2022-09-03T22:02:29;5.30;;;4.63;;
8982;SDS011;20979;59.850;10.660;2022-09-03T22:04:57;4.50;;;4.07;;
8982;SDS011;20979;59.850;10.660;2022-09-03T22:07:29;4.40;;;3.80;;
8982;SDS011;20979;59.850;10.660;2022-09-03T22:10:03;4.10;;;3.43;;
8982;SDS011;20979;59.850;10.660;2022-09-03T22:12:35;3.03;;;2.80;;
8982;SDS011;20979;59.850;10.660;2022-09-03T22:15:05;2.90;;;2.70;;
8982;SDS011;20979;59.850;10.660;2022-09-03T22:17:38;2.57;;;2.37;;
8982;SDS011;20979;59.850;10.660;2022-09-03T22:20:08;2.53;;;2.33;;
8982;SDS011;20979;59.850;10.660;2022-09-03T22:22:40;3.03;;;1.90;;
8982;SDS011;20979;59.850;10.660;2022-09-03T22:25:10;1.70;;;1.60;;
8982;SDS011;20979;59.850;10.660;2022-09-03T22:27:41;1.70;;;1.60;;
8982;SDS011;20979;59.850;10.660;2022-09-03T22:30:11;1.47;;;1.37;;
8982;SDS011;20979;59.850;10.660;2022-09-03T22:32:42;1.80;;;1.70;;
8982;SDS011;20979;59.850;10.660;2022-09-03T22:38:02;1.80;;;1.70;;
8982;SDS011;20979;59.850;10.660;2022-09-03T22:40:34;1.50;;;1.30;;
8982;SDS011;20979;59.850;10.660;2022-09-03T22:43:17;2.63;;;1.80;;
8982;SDS011;20979;59.850;10.660;2022-09-03T22:46:00;2.90;;;1.70;;
8982;SDS011;20979;59.850;10.660;2022-09-03T22:48:39;2.03;;;1.80;;
8982;SDS011;20979;59.850;10.660;2022-09-03T22:51:13;1.60;;;1.50;;
8982;SDS011;20979;59.850;10.660;2022-09-03T22:53:48;2.13;;;1.60;;
8982;SDS011;20979;59.850;10.660;2022-09-03T22:56:20;1.43;;;1.33;;
8982;SDS011;20979;59.850;10.660;2022-09-03T22:58:50;2.60;;;1.53;;
8982;SDS011;20979;59.850;10.660;2022-09-03T23:01:20;1.73;;;1.33;;
8982;SDS011;20979;59.850;10.660;2022-09-03T23:03:49;1.40;;;1.40;;
8982;SDS011;20979;59.850;10.660;2022-09-03T23:06:23;2.20;;;1.40;;
8982;SDS011;20979;59.850;10.660;2022-09-03T23:08:55;1.53;;;1.43;;
8982;SDS011;20979;59.850;10.660;2022-09-03T23:11:25;1.27;;;1.23;;
8982;SDS011;20979;59.850;10.660;2022-09-03T23:13:55;2.20;;;1.50;;
8982;SDS011;20979;59.850;10.660;2022-09-03T23:16:26;2.30;;;1.60;;
8982;SDS011;20979;59.850;10.660;2022-09-03T23:18:56;1.73;;;1.63;;
8982;SDS011;20979;59.850;10.660;2022-09-03T23:21:26;1.80;;;1.70;;
8982;SDS011;20979;59.850;10.660;2022-09-03T23:23:58;1.90;;;1.70;;
8982;SDS011;20979;59.850;10.660;2022-09-03T23:26:30;1.93;;;1.50;;
8982;SDS011;20979;59.850;10.660;2022-09-03T23:28:58;2.10;;;1.50;;
8982;SDS011;20979;59.850;10.660;2022-09-03T23:31:28;1.60;;;1.50;;